Time;durP1;ratioP1;P1;durP2;ratioP2;P2;SDS_P1;SDS_P2;PMS_P1;PMS_P2;Temp;Humidity;BMP_temperature;BMP_pressure;BME280_temperature;BME280_humidity;BME280_pressure;Samples;Min_cycle;Max_cycle;Signal;HPM_P1;HPM_P2
2023/01/05 00:01:34;;;;;;;9.85;7.72;;;;;;;20.09;54.55;102143.13;5034118;28;20049;-60
2023/01/05 00:04:03;;;;;;;9.18;7.70;;;;;;;20.10;54.36;102146.69;5035650;28;20041;-60
2023/01/05 00:06:31;;;;;;;10.65;8.45;;;;;;;20.09;54.56;102142.28;5035715;28;20045;-60
2023/01/05 00:08:59;;;;;;;8.70;7.65;;;;;;;20.08;54.34;102136.03;5034974;28;20046;-60
2023/01/05 00:22:38;;;;;;;10.35;8.23;;;;;;;20.06;54.31;102119.16;5015457;28;20049;-60
2023/01/05 00:25:07;;;;;;;9.80;7.20;;;;;;;20.08;54.30;102111.84;5015450;28;20053;-60
2023/01/05 00:27:39;;;;;;;;;;;;;;;20.08;54.26;102117.22;5016291;28;20058;-60
2023/01/05 00:30:09;;;;;;;9.85;7.65;;;;;;;20.08;54.29;102119.91;5015513;28;19929;-60
2023/01/05 00:32:36;;;;;;;8.15;7.10;;;;;;;20.08;54.28;102121.72;5015290;28;20053;-60
2023/01/05 00:35:04;;;;;;;8.75;7.45;;;;;;;20.07;54.14;102112.81;5016020;28;20049;-60
2023/01/05 00:37:35;;;;;;;9.23;7.30;;;;;;;20.07;54.28;102112.81;5029655;28;20058;-60
2023/01/05 00:40:05;;;;;;;9.80;7.32;;;;;;;20.07;54.19;102110.13;5034953;28;20046;-60
2023/01/05 00:42:32;;;;;;;9.00;7.93;;;;;;;20.07;54.05;102110.13;5035202;28;20053;-60
2023/01/05 00:44:59;;;;;;;9.18;7.85;;;;;;;20.07;54.09;102103.88;5033690;28;20385;-60
2023/01/05 00:47:27;;;;;;;10.55;7.68;;;;;;;20.07;54.14;102102.06;5034869;28;20498;-60
2023/01/05 00:49:54;;;;;;;8.02;7.22;;;;;;;20.07;54.13;102107.44;5035120;28;20053;-61
2023/01/05 00:52:21;;;;;;;8.50;7.55;;;;;;;20.07;54.10;102093.13;5033801;28;20054;-60
2023/01/05 00:54:49;;;;;;;7.35;6.50;;;;;;;20.07;54.15;102085.06;5033277;28;20060;-60
2023/01/05 00:57:16;;;;;;;8.93;7.63;;;;;;;20.06;53.97;102086.91;5029885;28;20054;-60
2023/01/05 00:59:44;;;;;;;8.15;7.28;;;;;;;20.07;53.98;102087.75;5031190;28;20049;-60
2023/01/05 01:02:12;;;;;;;8.45;7.57;;;;;;;20.06;53.98;102084.22;5033213;28;20795;-60
2023/01/05 01:04:40;;;;;;;8.23;7.43;;;;;;;20.07;53.82;102082.38;5033904;28;20060;-60
2023/01/05 01:07:07;;;;;;;8.82;7.05;;;;;;;20.06;53.83;102084.22;5034568;28;20061;-60
2023/01/05 01:09:36;;;;;;;8.50;6.90;;;;;;;20.07;53.95;102087.75;5033151;28;20049;-60
2023/01/05 01:12:03;;;;;;;7.50;6.70;;;;;;;20.06;53.84;102086.91;5034528;28;20502;-60
2023/01/05 01:14:31;;;;;;;8.55;7.65;;;;;;;20.06;53.82;102083.38;5033215;28;20414;-60
2023/01/05 01:16:58;;;;;;;8.23;6.60;;;;;;;20.05;53.76;102077.09;5034464;28;20049;-60
2023/01/05 01:19:26;;;;;;;7.75;6.93;;;;;;;20.06;53.86;102070.78;5034367;28;20076;-60
2023/01/05 01:21:53;;;;;;;7.82;7.03;;;;;;;20.06;53.69;102075.28;5033281;28;20053;-60
2023/01/05 01:24:24;;;;;;;7.75;6.95;;;;;;;20.05;53.84;102074.41;5034452;28;20411;-60
2023/01/05 01:26:52;;;;;;;7.72;6.40;;;;;;;20.06;53.52;102075.28;5034194;28;20072;-48
2023/01/05 01:29:20;;;;;;;7.85;6.93;;;;;;;20.05;53.80;102071.72;5032961;28;20376;-49
2023/01/05 01:31:49;;;;;;;7.00;6.30;;;;;;;20.05;53.66;102063.66;5033954;28;20053;-48
2023/01/05 01:34:16;;;;;;;7.45;6.65;;;;;;;20.04;53.45;102059.25;5034947;28;20058;-49
2023/01/05 01:36:44;;;;;;;7.55;6.45;;;;;;;20.05;53.62;102058.28;5033988;28;20068;-51
2023/01/05 01:39:13;;;;;;;6.93;6.22;;;;;;;20.03;53.49;102049.47;5033279;28;20049;-47
2023/01/05 01:41:44;;;;;;;8.17;6.87;;;;;;;20.04;53.46;102051.19;5032871;28;20065;-47
2023/01/05 01:44:46;;;;;;;7.30;6.40;;;;;;;20.04;53.32;102047.66;5033847;28;20295;-49
2023/01/05 01:47:55;;;;;;;8.70;6.82;;;;;;;20.05;53.26;102046.66;5032782;28;20053;-49
2023/01/05 01:50:44;;;;;;;8.27;7.15;;;;;;;20.04;53.25;102040.44;5031031;28;20053;-47
2023/01/05 01:53:34;;;;;;;7.75;6.78;;;;;;;20.05;53.34;102044.84;5031978;28;20060;-48
2023/01/05 01:56:05;;;;;;;7.47;6.78;;;;;;;20.04;53.34;102035.06;5031076;28;20076;-48
2023/01/05 01:58:33;;;;;;;7.35;6.65;;;;;;;20.05;53.31;102035.91;5029391;28;20045;-47
2023/01/05 02:01:00;;;;;;;6.72;6.03;;;;;;;20.04;53.34;102034.19;5030749;28;20057;-49
2023/01/05 02:03:30;;;;;;;7.50;6.63;;;;;;;20.05;53.40;102030.53;5014599;28;20431;-50
2023/01/05 02:05:58;;;;;;;9.07;6.60;;;;;;;20.05;53.38;102026.03;5030914;28;20068;-50
2023/01/05 02:08:32;;;;;;;7.97;6.80;;;;;;;20.04;53.54;102020.75;5014443;28;20056;-50
2023/01/05 02:11:22;;;;;;;6.95;6.25;;;;;;;20.03;53.42;102019.91;5014697;28;20053;-46
2023/01/05 02:13:57;;;;;;;6.95;6.25;;;;;;;20.05;53.41;102019.78;5031002;28;20045;-47
2023/01/05 02:16:42;;;;;;;6.88;6.07;;;;;;;20.05;53.47;102017.09;5031193;28;20057;-49
2023/01/05 02:19:33;;;;;;;7.35;6.65;;;;;;;20.05;53.43;102009.88;5014959;28;20220;-51
2023/01/05 02:22:12;;;;;;;6.63;5.97;;;;;;;20.04;53.25;102010.88;5032333;28;20526;-50
2023/01/05 02:24:57;;;;;;;6.00;5.30;;;;;;;20.04;53.23;102008.19;5032295;28;20052;-48
2023/01/05 02:27:28;;;;;;;6.63;5.93;;;;;;;20.04;53.43;102016.25;5031966;28;20049;-47
2023/01/05 02:30:38;;;;;;;7.15;6.45;;;;;;;20.05;53.19;102000.97;5032191;28;20062;-48
2023/01/05 02:33:21;;;;;;;7.32;6.18;;;;;;;20.03;53.39;101994.84;5032204;28;20049;-47
2023/01/05 02:36:13;;;;;;;6.50;5.80;;;;;;;20.03;53.14;101982.28;5033599;28;20060;-49
2023/01/05 02:38:59;;;;;;;7.25;6.25;;;;;;;20.03;53.36;101970.66;5033048;28;20045;-48
2023/01/05 02:41:35;;;;;;;7.65;6.45;;;;;;;20.05;53.20;101979.47;5031201;28;20400;-48
2023/01/05 02:44:07;;;;;;;8.20;5.88;;;;;;;20.03;53.39;101974.22;5031437;28;20046;-46
2023/01/05 02:46:34;;;;;;;6.68;5.97;;;;;;;20.04;53.14;101973.22;5033370;28;20511;-47
2023/01/05 02:49:03;;;;;;;6.57;5.47;;;;;;;20.02;53.19;101967.13;5031578;28;20049;-46
2023/01/05 02:51:38;;;;;;;7.40;6.20;;;;;;;20.03;53.27;101971.53;5033053;28;20052;-47
2023/01/05 02:54:20;;;;;;;6.85;5.70;;;;;;;20.03;53.27;101971.53;5031252;28;20049;-45
2023/01/05 02:56:54;;;;;;;;;;;;;;;20.03;53.29;101973.34;5032036;28;20529;-58
2023/01/05 02:59:24;;;;;;;5.63;5.13;;;;;;;20.03;53.18;101967.97;5023435;28;19928;-58
2023/01/05 03:02:03;;;;;;;5.90;5.25;;;;;;;20.03;53.17;101967.97;5019588;28;20046;-58
2023/01/05 03:04:43;;;;;;;6.32;5.50;;;;;;;20.04;53.13;101962.47;5036659;28;20041;-58
2023/01/05 03:07:16;;;;;;;6.55;5.50;;;;;;;20.04;53.06;101958.94;5035593;28;20056;-58
2023/01/05 03:09:46;;;;;;;6.38;5.75;;;;;;;20.02;53.25;101945.63;5035386;28;20057;-58
2023/01/05 03:15:29;;;;;;;6.65;5.95;;;;;;;20.03;53.01;101951.84;5035564;28;20387;-47
2023/01/05 03:18:19;;;;;;;7.40;5.65;;;;;;;20.03;53.15;101947.31;5035653;28;20506;-50
2023/01/05 03:20:53;;;;;;;5.97;5.35;;;;;;;20.03;53.09;101957.22;5035701;28;20065;-49
2023/01/05 03:37:46;;;;;;;5.82;5.22;;;;;;;20.03;53.07;101947.31;5035590;28;20049;-48
2023/01/05 03:40:21;;;;;;;5.90;5.40;;;;;;;20.03;53.08;101936.56;5034620;28;20060;-48
2023/01/05 03:42:52;;;;;;;5.72;5.03;;;;;;;20.05;52.74;101949.91;5035077;28;20060;-47
2023/01/05 03:45:22;;;;;;;6.18;5.57;;;;;;;20.04;52.91;101938.28;5034831;28;20045;-48
2023/01/05 03:47:51;;;;;;;5.95;5.30;;;;;;;20.04;52.90;101943.66;5035063;28;20061;-49
2023/01/05 03:50:24;;;;;;;6.30;5.27;;;;;;;20.03;52.95;101936.56;5035134;28;20056;-48
2023/01/05 03:52:51;;;;;;;5.45;4.70;;;;;;;20.03;52.86;101930.34;5034614;28;20045;-48
2023/01/05 03:55:18;;;;;;;6.15;5.28;;;;;;;20.04;52.97;101926.69;5035033;28;20053;-48
2023/01/05 03:57:51;;;;;;;6.15;5.13;;;;;;;20.04;53.01;101922.16;5035075;28;20045;-50
2023/01/05 04:00:20;;;;;;;6.15;5.15;;;;;;;20.05;52.84;101923.88;5032014;28;20061;-51
2023/01/05 04:02:55;;;;;;;9.40;5.78;;;;;;;20.03;52.97;101917.75;5015722;28;20050;-50
2023/01/05 04:05:23;;;;;;;6.53;5.68;;;;;;;20.03;53.00;101909.69;5014953;28;20400;-47
2023/01/05 04:07:51;;;;;;;6.20;5.05;;;;;;;20.03;52.74;101907.00;5015869;28;20064;-48
2023/01/05 04:10:20;;;;;;;5.32;4.63;;;;;;;20.03;52.95;101915.06;5016160;28;20049;-47
2023/01/05 04:12:48;;;;;;;6.43;5.20;;;;;;;20.04;52.93;101907.88;5015836;28;20056;-48
2023/01/05 04:15:17;;;;;;;6.50;5.45;;;;;;;20.04;53.02;101900.66;5014289;28;20384;-47
2023/01/05 04:17:45;;;;;;;6.05;5.22;;;;;;;20.04;52.70;101902.50;5014126;28;20057;-52
2023/01/05 04:20:12;;;;;;;7.40;5.13;;;;;;;20.04;52.79;101895.28;5014832;28;20057;-50
2023/01/05 04:22:40;;;;;;;5.50;4.50;;;;;;;20.04;53.06;101895.28;5015560;28;20046;-51
2023/01/05 04:25:08;;;;;;;5.47;4.60;;;;;;;20.03;52.84;101898.09;5014444;28;20058;-52
2023/01/05 04:27:37;;;;;;;6.63;4.93;;;;;;;20.03;52.75;101893.56;5014419;28;20053;-51
2023/01/05 04:30:06;;;;;;;6.68;5.00;;;;;;;20.03;52.89;101890.88;5014729;28;20384;-50
2023/01/05 04:32:33;;;;;;;7.80;5.05;;;;;;;20.04;52.86;101897.13;5015482;28;20045;-46
2023/01/05 04:35:00;;;;;;;6.45;4.82;;;;;;;20.03;52.93;101898.94;5014501;28;20053;-47
2023/01/05 04:37:39;;;;;;;6.18;4.72;;;;;;;20.03;52.74;101900.78;5014376;28;20496;-48
2023/01/05 04:40:07;;;;;;;5.97;5.13;;;;;;;20.04;52.92;101906.03;5015649;28;20068;-50
2023/01/05 04:42:43;;;;;;;5.70;5.07;;;;;;;20.03;52.94;101903.47;5030938;28;20491;-50
2023/01/05 04:45:10;;;;;;;6.95;4.90;;;;;;;20.03;53.07;101907.00;5033751;28;20045;-50
2023/01/05 04:47:38;;;;;;;6.40;4.88;;;;;;;20.04;53.16;101905.19;5035522;28;20045;-50
2023/01/05 04:50:06;;;;;;;5.70;4.70;;;;;;;20.03;53.16;101896.25;5033424;28;20064;-48
2023/01/05 04:52:33;;;;;;;6.43;5.00;;;;;;;20.02;53.23;101897.22;5033178;28;20053;-51
2023/01/05 04:55:02;;;;;;;6.32;5.30;;;;;;;20.02;53.24;101896.38;5033117;28;20072;-48
2023/01/05 04:57:30;;;;;;;6.20;5.55;;;;;;;20.02;53.09;101885.63;5034831;28;20045;-50
2023/01/05 04:59:58;;;;;;;6.28;4.65;;;;;;;20.03;53.19;101879.28;5033083;28;20407;-49
2023/01/05 05:02:25;;;;;;;6.15;4.68;;;;;;;20.02;53.29;101880.25;5017448;28;20495;-47
2023/01/05 05:04:53;;;;;;;6.80;4.38;;;;;;;20.02;53.34;101875.72;5013849;28;20057;-50
2023/01/05 05:07:21;;;;;;;7.72;5.53;;;;;;;20.02;53.48;101874.88;5013805;28;20050;-48
2023/01/05 05:09:49;;;;;;;5.47;4.72;;;;;;;20.02;53.39;101881.09;5013865;28;20062;-47
2023/01/05 05:12:20;;;;;;;7.82;5.47;;;;;;;20.02;53.37;101881.09;5014763;28;20479;-48
2023/01/05 05:14:50;;;;;;;6.35;5.53;;;;;;;20.02;53.34;101896.38;5013796;28;20050;-48
2023/01/05 05:17:17;;;;;;;6.68;4.85;;;;;;;20.02;53.36;101888.31;5014096;28;20054;-51
2023/01/05 05:19:45;;;;;;;5.93;5.13;;;;;;;20.02;53.37;101886.47;5014234;28;20385;-50
2023/01/05 05:22:12;;;;;;;6.07;5.18;;;;;;;20.02;53.30;101894.56;5013364;28;20054;-48
2023/01/05 05:24:41;;;;;;;7.28;5.22;;;;;;;20.02;53.44;101897.22;5012862;28;20054;-49
2023/01/05 05:27:08;;;;;;;5.13;4.60;;;;;;;20.02;53.42;101894.56;5012802;28;20058;-49
2023/01/05 05:29:36;;;;;;;7.80;5.07;;;;;;;20.02;53.45;101905.31;5014680;28;20041;-49
2023/01/05 05:32:03;;;;;;;6.13;5.22;;;;;;;20.00;53.30;101891.94;5033984;28;20042;-48
2023/01/05 05:34:31;;;;;;;6.18;5.43;;;;;;;20.01;53.38;101898.19;5034356;28;20042;-61
2023/01/05 05:36:58;;;;;;;5.68;5.03;;;;;;;20.01;53.45;101892.81;5033923;28;20053;-61
2023/01/05 05:39:25;;;;;;;7.38;5.43;;;;;;;20.02;53.49;101891.00;5034050;28;20056;-61
2023/01/05 05:41:52;;;;;;;6.43;5.22;;;;;;;20.01;53.22;101895.50;5033878;28;20064;-61
2023/01/05 05:44:20;;;;;;;6.50;5.15;;;;;;;20.02;53.35;101897.22;5034397;28;20056;-61
2023/01/05 05:46:47;;;;;;;4.60;4.15;;;;;;;20.01;53.45;101892.81;5033847;28;20467;-61
2023/01/05 05:49:14;;;;;;;7.13;4.68;;;;;;;20.01;53.31;101892.81;5033484;28;20049;-61
2023/01/05 05:51:41;;;;;;;5.68;4.70;;;;;;;20.01;53.20;101898.19;5034030;28;20053;-61
2023/01/05 05:54:09;;;;;;;7.63;5.25;;;;;;;20.01;53.18;101895.50;5033843;28;20049;-61
2023/01/05 05:56:36;;;;;;;6.35;4.90;;;;;;;20.01;53.31;101892.81;5033951;28;20042;-61
2023/01/05 05:59:04;;;;;;;5.53;4.57;;;;;;;20.01;53.38;101892.81;5033744;28;20053;-61
2023/01/05 06:01:31;;;;;;;8.32;4.50;;;;;;;20.00;53.36;101896.47;5031580;28;20041;-61
2023/01/05 06:03:59;;;;;;;5.70;4.78;;;;;;;20.00;53.08;101888.41;5012987;28;20048;-61
2023/01/05 06:06:26;;;;;;;5.55;4.68;;;;;;;20.00;53.32;101893.78;5014000;28;20042;-61
2023/01/05 06:08:53;;;;;;;5.03;4.28;;;;;;;20.00;53.22;101894.63;5013906;28;20049;-48
2023/01/05 06:11:21;;;;;;;5.47;4.65;;;;;;;20.00;53.21;101891.94;5012473;28;20041;-50
2023/01/05 06:13:48;;;;;;;5.80;4.85;;;;;;;20.01;53.31;101892.81;5014305;28;20057;-49
2023/01/05 06:16:15;;;;;;;6.68;4.40;;;;;;;20.00;53.42;101891.94;5013734;28;20041;-50
2023/01/05 06:18:43;;;;;;;5.63;4.78;;;;;;;20.00;53.16;101886.56;5013662;28;20050;-48
2023/01/05 06:21:10;;;;;;;5.25;4.68;;;;;;;20.00;53.16;101888.41;5014095;28;20080;-51
2023/01/05 06:23:37;;;;;;;6.22;4.90;;;;;;;20.00;53.50;101891.94;5013439;28;20057;-48
2023/01/05 06:26:05;;;;;;;7.00;4.82;;;;;;;20.00;53.22;101888.41;5013472;28;20041;-51
2023/01/05 06:28:32;;;;;;;6.10;5.07;;;;;;;20.00;53.16;101888.41;5013580;28;20042;-49
2023/01/05 06:30:59;;;;;;;5.40;4.47;;;;;;;19.99;53.18;101886.69;5013899;28;20073;-49
2023/01/05 06:33:27;;;;;;;6.13;4.68;;;;;;;19.98;53.18;101880.47;5013231;28;20042;-48
2023/01/05 06:35:54;;;;;;;5.53;4.47;;;;;;;19.98;53.20;101882.28;5013539;28;20053;-48
2023/01/05 06:38:21;;;;;;;6.72;5.28;;;;;;;19.99;53.27;101876.81;5013521;28;20050;-50
2023/01/05 06:40:49;;;;;;;5.70;4.63;;;;;;;19.99;53.65;101868.72;5013350;28;20057;-48
2023/01/05 06:43:16;;;;;;;6.20;4.70;;;;;;;19.99;53.53;101862.50;5014028;28;20054;-51
2023/01/05 06:45:43;;;;;;;5.57;4.63;;;;;;;20.00;53.43;101861.53;5013277;28;20053;-48
2023/01/05 06:48:10;;;;;;;7.15;5.20;;;;;;;20.00;53.61;101862.38;5013788;28;20057;-49
2023/01/05 06:50:38;;;;;;;5.97;4.55;;;;;;;20.01;53.67;101857.88;5013290;28;20045;-52
2023/01/05 06:53:05;;;;;;;6.35;4.65;;;;;;;20.01;53.71;101852.47;5013447;28;20064;-49
2023/01/05 06:55:33;;;;;;;5.35;4.72;;;;;;;20.00;53.79;101853.47;5030149;28;20049;-49
2023/01/05 06:58:00;;;;;;;5.93;4.78;;;;;;;20.00;53.79;101856.16;5033072;28;20053;-48
2023/01/05 07:00:28;;;;;;;7.18;5.10;;;;;;;20.00;53.69;101851.63;5033327;28;20376;-51
2023/01/05 07:02:55;;;;;;;5.82;4.78;;;;;;;20.00;53.68;101856.16;5015550;28;20046;-50
2023/01/05 07:05:23;;;;;;;5.18;4.68;;;;;;;20.00;53.72;101856.16;5012226;28;20514;-49
2023/01/05 07:07:50;;;;;;;6.28;4.95;;;;;;;19.99;53.55;101866.06;5013275;28;20490;-50
2023/01/05 07:10:18;;;;;;;6.10;4.25;;;;;;;19.99;53.62;101863.38;5013684;28;20057;-50
2023/01/05 07:12:45;;;;;;;4.97;4.30;;;;;;;19.99;53.53;101862.50;5013191;28;20068;-49
2023/01/05 07:15:12;;;;;;;8.77;5.13;;;;;;;19.99;53.59;101866.06;5013270;28;20372;-49
2023/01/05 07:17:40;;;;;;;5.10;4.43;;;;;;;19.98;53.45;101867.03;5013542;28;20045;-48
2023/01/05 07:20:07;;;;;;;6.88;4.72;;;;;;;19.99;53.69;101871.44;5013297;28;20057;-47
2023/01/05 07:22:35;;;;;;;7.45;5.22;;;;;;;19.98;53.63;101871.56;5013225;28;20050;-48
2023/01/05 07:25:02;;;;;;;6.38;4.65;;;;;;;20.00;53.70;101872.28;5013384;28;20056;-49
2023/01/05 07:27:30;;;;;;;6.00;4.60;;;;;;;19.98;53.55;101866.16;5013106;28;20069;-50
2023/01/05 07:29:57;;;;;;;6.88;4.85;;;;;;;19.98;53.36;101861.66;5013129;28;20046;-50
2023/01/05 07:32:25;;;;;;;6.28;4.75;;;;;;;19.99;53.62;101865.19;5013104;28;20046;-51
2023/01/05 07:34:52;;;;;;;6.82;4.60;;;;;;;19.97;53.51;101859.94;5013123;28;20404;-49
2023/01/05 07:37:26;;;;;;;7.35;5.15;;;;;;;19.97;53.56;101868.00;5012792;28;20042;-46
2023/01/05 07:39:53;;;;;;;5.88;4.88;;;;;;;19.98;53.34;101872.41;5013347;28;20061;-45
2023/01/05 07:42:21;;;;;;;5.75;4.97;;;;;;;19.98;53.40;101874.22;5013277;28;20057;-49
2023/01/05 07:44:50;;;;;;;5.95;4.32;;;;;;;19.97;53.33;101875.19;5026349;28;20060;-46
2023/01/05 07:47:17;;;;;;;6.47;4.88;;;;;;;19.96;53.30;101863.56;5032508;28;20064;-45
2023/01/05 07:49:45;;;;;;;5.57;4.53;;;;;;;19.97;53.18;101877.88;5034986;28;20049;-45
2023/01/05 07:52:12;;;;;;;4.30;3.67;;;;;;;19.96;53.24;101865.41;5036218;28;20049;-45
2023/01/05 07:54:40;;;;;;;6.13;4.35;;;;;;;19.95;53.19;101867.25;5035800;28;20052;-50
2023/01/05 07:57:07;;;;;;;5.55;4.30;;;;;;;19.97;53.25;101861.75;5036553;28;20045;-48
2023/01/05 07:59:34;;;;;;;5.38;4.13;;;;;;;19.96;53.15;101858.19;5035986;28;20360;-52
2023/01/05 08:02:02;;;;;;;5.57;4.70;;;;;;;19.96;53.07;101851.97;5034029;28;20471;-51
2023/01/05 08:04:29;;;;;;;5.90;5.20;;;;;;;19.94;52.76;101857.47;5025627;28;20404;-51
2023/01/05 08:06:56;;;;;;;9.20;4.45;;;;;;;19.95;53.12;101855.63;5015764;28;20048;-48
2023/01/05 08:12:10;;;;;;;6.93;4.72;;;;;;;19.94;52.90;101860.16;5016108;28;20053;-49
2023/01/05 08:14:37;;;;;;;6.65;4.20;;;;;;;19.93;52.99;101855.75;5015931;28;20050;-52
2023/01/05 08:17:05;;;;;;;6.40;4.70;;;;;;;19.94;53.12;101856.63;5016483;28;20046;-48
2023/01/05 08:19:32;;;;;;;5.25;4.30;;;;;;;19.95;53.00;101863.69;5015927;28;20393;-47
2023/01/05 08:22:00;;;;;;;8.07;4.63;;;;;;;19.94;52.96;101851.25;5015840;28;20042;-47
2023/01/05 08:24:27;;;;;;;5.90;4.63;;;;;;;19.94;52.91;101862.84;5015610;28;20046;-48
2023/01/05 08:26:55;;;;;;;5.55;4.22;;;;;;;19.94;53.34;101862.00;5015294;28;20073;-45
2023/01/05 08:29:22;;;;;;;6.18;4.63;;;;;;;19.94;52.94;101865.53;5015161;28;20054;-48
2023/01/05 08:31:49;;;;;;;6.00;4.50;;;;;;;19.94;52.80;101860.16;5016790;28;20046;-47
2023/01/05 08:34:17;;;;;;;5.40;4.18;;;;;;;19.94;53.00;101867.38;5035418;28;20061;-46
2023/01/05 08:36:45;;;;;;;7.22;4.95;;;;;;;19.94;52.37;101862.84;5034932;28;20045;-46
2023/01/05 08:39:12;;;;;;;5.43;4.07;;;;;;;19.95;53.12;101866.38;5035517;28;20049;-47
2023/01/05 08:41:40;;;;;;;5.63;4.18;;;;;;;19.96;53.36;101868.94;5034969;28;20053;-46
2023/01/05 08:44:13;;;;;;;6.95;4.55;;;;;;;19.96;52.75;101863.56;5035031;28;20060;-56
2023/01/05 08:46:40;;;;;;;11.75;7.72;;;;;;;19.82;48.36;101869.09;5035486;28;20041;-59
2023/01/05 08:49:08;;;;;;;12.50;9.23;;;;;;;19.63;47.82;101869.53;5034873;28;20403;-59
2023/01/05 08:51:36;;;;;;;12.70;10.07;;;;;;;19.38;48.45;101862.31;5034308;28;20049;-58
2023/01/05 08:54:04;;;;;;;13.35;9.95;;;;;;;19.16;49.40;101871.03;5037985;28;20383;-59
2023/01/05 08:56:31;;;;;;;13.50;9.60;;;;;;;19.00;49.39;101875.72;5034703;28;20046;-59
2023/01/05 08:59:05;;;;;;;14.02;10.32;;;;;;;18.77;50.38;101875.44;5033962;28;20049;-56
2023/01/05 09:01:33;;;;;;;14.02;10.43;;;;;;;18.66;50.06;101877.06;5034715;28;20038;-59
2023/01/05 09:04:00;;;;;;;16.25;10.77;;;;;;;18.52;50.52;101875.31;5034500;28;20050;-59
2023/01/05 09:06:28;;;;;;;19.23;12.15;;;;;;;18.48;49.82;101884.53;5023362;28;20053;-58
2023/01/05 09:08:55;;;;;;;20.65;11.68;;;;;;;18.37;50.91;101893.25;5015135;28;20048;-58
2023/01/05 09:11:24;;;;;;;18.92;11.20;;;;;;;18.28;51.16;101892.03;5014654;28;20057;-60
2023/01/05 09:13:57;;;;;;;17.90;12.90;;;;;;;18.20;51.09;101899.72;5014588;28;20046;-57
2023/01/05 09:16:29;;;;;;;17.48;11.38;;;;;;;18.13;51.50;101894.84;5014948;28;20365;-55
2023/01/05 09:19:16;;;;;;;18.67;12.70;;;;;;;18.06;51.10;101886.31;5014723;28;20121;-58
2023/01/05 09:21:44;;;;;;;17.80;11.80;;;;;;;17.99;51.58;101885.88;5014723;28;20487;-58
2023/01/05 09:24:11;;;;;;;19.50;11.90;;;;;;;17.93;51.98;101880.88;5034259;28;20057;-58
2023/01/05 09:26:42;;;;;;;17.38;11.20;;;;;;;17.92;52.36;101881.84;5034453;28;20046;-58
2023/01/05 09:29:11;;;;;;;19.38;12.73;;;;;;;17.93;51.77;101885.38;5033900;28;20057;-59
2023/01/05 09:31:42;;;;;;;16.52;11.95;;;;;;;17.87;51.94;101878.63;5034155;28;20045;-57
2023/01/05 09:34:10;;;;;;;15.55;11.38;;;;;;;17.85;52.45;101877.84;5019107;28;20057;-56
2023/01/05 09:36:40;;;;;;;19.73;12.15;;;;;;;17.86;52.16;101886.72;5027607;28;20041;-57
2023/01/05 09:39:08;;;;;;;14.18;9.35;;;;;;;17.92;53.52;101883.69;5034006;28;20049;-60
2023/01/05 09:41:57;;;;;;;15.90;9.35;;;;;;;18.10;53.30;101876.28;5025602;28;20069;-61
2023/01/05 09:44:53;;;;;;;16.50;10.10;;;;;;;18.26;52.14;101874.31;5013762;28;20065;-60
2023/01/05 09:47:33;;;;;;;16.98;11.52;;;;;;;18.41;51.44;101870.66;5013850;28;20042;-61
2023/01/05 09:50:01;;;;;;;17.58;11.45;;;;;;;18.52;50.70;101875.31;5013752;28;20617;-60
2023/01/05 09:52:29;;;;;;;14.32;10.77;;;;;;;18.62;51.00;101875.56;5014060;28;20100;-59
2023/01/05 09:55:19;;;;;;;12.55;9.57;;;;;;;18.73;52.01;101871.22;5018727;28;20041;-62
2023/01/05 09:58:17;;;;;;;12.18;8.60;;;;;;;18.85;52.23;101874.06;5028271;28;20053;-60
2023/01/05 10:01:04;;;;;;;12.93;8.32;;;;;;;18.95;52.58;101872.47;5017220;28;20065;-60
2023/01/05 10:03:38;;;;;;;13.75;9.93;;;;;;;18.97;50.29;101871.41;5031993;28;20089;-59
2023/01/05 10:06:28;;;;;;;;;;;;;;;18.83;50.23;101863.41;5024548;28;20049;-59
2023/01/05 10:08:56;;;;;;;19.98;11.70;;;;;;;18.73;50.32;101862.34;5013188;28;19928;-62
2023/01/05 10:14:40;;;;;;;16.48;10.75;;;;;;;18.55;51.08;101845.59;5026477;28;20502;-59
2023/01/05 10:17:19;;;;;;;16.27;8.82;;;;;;;18.58;52.14;101837.34;5033493;28;20045;-60
2023/01/05 10:20:13;;;;;;;13.55;8.88;;;;;;;18.71;52.97;101840.09;5033491;28;20498;-60
2023/01/05 10:23:05;;;;;;;10.98;7.72;;;;;;;18.82;53.27;101820.59;5033734;28;20049;-60
2023/01/05 10:25:44;;;;;;;12.18;8.00;;;;;;;18.93;52.90;101823.44;5028783;28;20048;-61
2023/01/05 10:28:27;;;;;;;12.88;7.50;;;;;;;19.03;52.59;101821.81;5030912;28;20041;-60
2023/01/05 10:31:01;;;;;;;12.63;7.33;;;;;;;19.09;52.53;101807.13;5025160;28;20052;-59
2023/01/05 10:33:40;;;;;;;15.23;8.35;;;;;;;19.14;52.54;101802.28;5033136;28;20399;-59
2023/01/05 10:37:03;;;;;;;13.68;7.18;;;;;;;19.19;52.54;101805.50;5013217;28;20046;-61
2023/01/05 10:39:41;;;;;;;8.82;7.30;;;;;;;19.24;52.59;101804.22;5010752;28;20046;-61
2023/01/05 10:42:14;;;;;;;12.43;7.03;;;;;;;19.27;52.34;101801.31;5024919;28;20498;-62
2023/01/05 10:44:50;;;;;;;9.48;6.30;;;;;;;19.31;52.32;101796.59;5031115;28;20435;-62
2023/01/05 10:47:19;;;;;;;10.52;6.57;;;;;;;19.33;52.60;101802.72;5030332;28;20049;-59
2023/01/05 10:49:47;;;;;;;9.68;6.45;;;;;;;19.34;52.39;101782.94;5030499;28;20049;-59
2023/01/05 10:52:18;;;;;;;9.88;6.57;;;;;;;19.36;52.42;101785.50;5031257;28;20053;-60
2023/01/05 10:54:57;;;;;;;13.38;6.28;;;;;;;19.36;52.31;101786.38;5029814;28;20065;-60
2023/01/05 10:57:27;;;;;;;9.48;6.57;;;;;;;19.38;52.33;101780.91;5030328;28;20426;-61
2023/01/05 11:00:04;;;;;;;10.18;6.70;;;;;;;19.38;52.35;101783.59;5030027;28;20511;-61
2023/01/05 11:02:34;;;;;;;10.48;6.05;;;;;;;19.39;52.34;101786.16;5016765;28;20046;-60
2023/01/05 11:05:05;;;;;;;9.27;6.22;;;;;;;19.41;52.38;101788.75;5010551;28;20054;-61
2023/01/05 11:07:49;;;;;;;8.52;5.97;;;;;;;19.41;52.31;101784.25;5019323;28;20042;-61
2023/01/05 11:10:28;;;;;;;8.68;6.43;;;;;;;19.42;52.27;101772.53;5029623;28;20057;-61
2023/01/05 11:13:28;;;;;;;10.38;6.50;;;;;;;19.43;52.37;101774.22;5030947;28;20062;-61
2023/01/05 11:16:01;;;;;;;9.57;5.43;;;;;;;19.44;52.51;101764.34;5031799;28;20068;-61
2023/01/05 11:18:35;;;;;;;11.63;5.45;;;;;;;19.45;52.19;101761.56;5032349;28;20403;-61
2023/01/05 11:21:16;;;;;;;8.43;5.60;;;;;;;19.46;52.37;101754.38;5032203;28;20053;-61
2023/01/05 11:23:47;;;;;;;8.40;5.47;;;;;;;19.46;52.31;101743.63;5020625;28;20053;-61
2023/01/05 11:26:17;;;;;;;9.77;5.60;;;;;;;19.46;52.29;101740.94;5016166;28;20042;-61
2023/01/05 11:29:07;;;;;;;8.57;5.38;;;;;;;19.48;52.10;101747.03;5016054;28;20510;-61
2023/01/05 11:31:41;;;;;;;9.65;6.05;;;;;;;19.48;52.26;101739.84;5015298;28;20053;-61
2023/01/05 11:34:47;;;;;;;8.35;4.80;;;;;;;19.49;51.95;101744.25;5016183;28;20400;-61
2023/01/05 11:37:29;;;;;;;8.15;5.82;;;;;;;19.49;52.06;101738.03;5015973;28;20068;-61
2023/01/05 11:40:01;;;;;;;7.68;5.22;;;;;;;19.49;52.16;101728.16;5015927;28;20053;-61
2023/01/05 11:42:33;;;;;;;8.38;5.35;;;;;;;19.50;52.09;101723.63;5016132;28;20050;-61
2023/01/05 11:45:23;;;;;;;7.93;5.28;;;;;;;19.51;52.01;101711.91;5015903;28;20046;-61
2023/01/05 11:47:57;;;;;;;7.82;5.85;;;;;;;19.51;51.90;101710.09;5015840;28;20054;-61
2023/01/05 11:50:47;;;;;;;7.80;5.20;;;;;;;19.51;52.03;101706.53;5016146;28;20072;-61
2023/01/05 11:53:33;;;;;;;7.60;5.20;;;;;;;19.51;52.13;101710.09;5015556;28;20065;-60
2023/01/05 11:56:17;;;;;;;6.47;4.97;;;;;;;19.52;52.13;101700.19;5015588;28;20407;-61
2023/01/05 11:58:46;;;;;;;7.55;5.13;;;;;;;19.52;52.15;101695.69;5015601;28;20488;-60
2023/01/05 12:01:20;;;;;;;7.43;5.20;;;;;;;19.54;52.33;101700.09;5019106;28;20048;-61
2023/01/05 12:04:00;;;;;;;9.48;5.38;;;;;;;19.54;52.10;101703.66;5035237;28;20056;-60
2023/01/05 12:07:00;;;;;;;7.70;5.00;;;;;;;19.54;52.08;101706.34;5034068;28;20388;-61
2023/01/05 12:09:41;;;;;;;7.57;5.35;;;;;;;19.54;52.11;101698.28;5016093;28;20065;-60
2023/01/05 12:12:14;;;;;;;10.85;4.68;;;;;;;19.55;52.21;101688.38;5015678;28;20046;-61
2023/01/05 12:14:50;;;;;;;6.05;4.60;;;;;;;19.54;52.18;101690.22;5015637;28;20046;-62
2023/01/05 12:18:02;;;;;;;6.88;5.07;;;;;;;19.56;52.19;101687.41;5015284;28;20065;-61
2023/01/05 12:20:41;;;;;;;8.10;5.47;;;;;;;19.55;52.35;101683.00;5014115;28;20062;-61
2023/01/05 12:23:45;;;;;;;7.20;5.38;;;;;;;19.55;52.02;101675.81;5015558;28;20045;-61